Fort McCoy, FL (32134)

6:40 PM EDT on May 30, 2015 (GMT -0400)
Yancey Blueberry | | Change Station
CLOSE
Current Station
Personal Weather Station
Location: Silver Springs, FL
Elevation: 84 ft
Nearby Weather Stations

Elev 84 ft 29.19 °N, 81.96 °W | Updated 8 seconds ago

Mostly Cloudy
Mostly Cloudy
82.0 °F
Feels Like 90 °F
N
6.0
Wind Variable Wind from East
Gusts 8.0 mph

Today
High -- | Low -- °F
--% Chance of Precip.
Yesterday
High -- | Low -- °F
Precip. -- in
6:29 AM 8:21 PM
Waxing Gibbous, 92% visible
Pressure 30.02 in
Visibility 7.0 miles
Clouds Scattered Clouds 3600 ft
Mostly Cloudy 4600 ft
Heat Index 90 °F
Dew Point 76 °F
Humidity 84%
Rainfall 0.00 in
Snow Depth Not available.
UV 2 out of 12
Pollen 4.40 out of 12
Air Quality Not available.
Flu Activity Sporadic
METAR KOCF 302150Z 13005G16KT 7SM -RA SCT036 BKN046 26/19 A3002

More Conditions Fewer Conditions

Pressure 30.02 in
Visibility 7.0 miles
Clouds Scattered Clouds 3600 ft
Mostly Cloudy 4600 ft
Heat Index 90 °F
Dew Point 76 °F
Humidity 84%
Rainfall 0.00 in
Snow Depth Not available.
UV 2 out of 12
Pollen 4.40 out of 12
Air Quality Not available.
Flu Activity Sporadic
METAR KOCF 302150Z 13005G16KT 7SM -RA SCT036 BKN046 26/19 A3002

More Conditions Fewer Conditions

10-Day Weather Forecast

Almanac

Astronomy

May. 30, 2015 Rise Set
Actual Time
Civil Twilight
Nautical Twilight
Astronomical Twilight
Moon
Length of Visible Light
Length of Day
Tomorrow will be .
, % of the Moon is Illuminated

Today's Extremes

State Highs State Lows

Community

WunderPhotos

Upload Photos

1,825,609 photos uploaded!

WunderBlogs® & News

Nearby

Air Quality

  Air Quality AQ Index Pollutant
Not available.

Snow Depth

Station Depth Elevation

Earthquake Activity

City Distance Mag. Time & Date
Minimum magnitude displayed is 2.5.

Coastal Water Temperatures

Place Temperature

Stations

Nearby Weather Stations

Station Location Temp. Windchill Dew Point Humidity Wind Precip. Elev Updated Type